METAR Data
IDs: Format: Raw Decoded Include TAF

Data at: 0110 UTC 06 Dec 2019

METAR for:KBWI (Baltimore-Washington, MD, US)
Text:KBWI 060054Z 00000KT 10SM CLR 03/M06 A3012 RMK AO2 SLP200 T00331061 $
Temperature: 3.3°C ( 38°F)
Dewpoint: -6.1°C ( 21°F) [RH = 50%]
Pressure (altimeter):30.12 inches Hg (1020.1 mb) [Sea level pressure: 1020.0 mb]
Winds:calm
Visibility:10 or more sm (16+ km)
Ceiling:at least 12,000 feet AGL
Clouds:sky clear below 12,000 feet AGL
QC Flag:SOME DATA ABOVE MAY BE INACCURATE!!!"$" is an indication the sensor requires maintenance.